KHFJ

Monett Regional Airport

Monett, Missouri, USA
METAR KHFJ 180015Z AUTO 02003KT 10SM CLR 13/06 A3043 RMK AO2
Observed Flight Rules
Oct-18 @ 00:15 UTC (28 minutes ago) Visual Flight Rules
Wind Visibility Clouds
20° at 3 knots 10 miles
  • Clear skies
Temperatures Readings
Current 13°C / 55°F
Dewpoint 6°C / 43°F
Humidity 63%
Altimeter 30.43" Hg
Pressure 1030 hPa
Elevation 401
METAR KHFJ 180015Z AUTO 02003KT 10SM CLR 13/06 A3043 RMK AO2
Observed Flight Rules
Oct-18 @ 00:15 UTC
(28 minutes ago)
VFR
Wind Visibility
20° at 3 knots 10 miles
Clouds
  • Clear skies
Temperature Dewpoint
13°C / 55°F 6°C / 43°F
Humidity Altimeter Pressure
63% 30.43" Hg 1030 hPa